Time;durP1;ratioP1;P1;durP2;ratioP2;P2;SDS_P1;SDS_P2;PMS_P1;PMS_P2;Temp;Humidity;BMP_temperature;BMP_pressure;BME280_temperature;BME280_humidity;BME280_pressure;Samples;Min_cycle;Max_cycle;Signal;HPM_P1;HPM_P2
2021/09/28 00:01:25;;;;;;;7.10;2.85;;;;;;;;;;5032090;28;20643;-77
2021/09/28 00:03:51;;;;;;;9.03;2.83;;;;;;;;;;5032600;28;20209;-77
2021/09/28 00:06:17;;;;;;;17.88;4.03;;;;;;;;;;5032498;28;20500;-77
2021/09/28 00:08:43;;;;;;;13.60;3.93;;;;;;;;;;5032754;28;20203;-77
2021/09/28 00:11:10;;;;;;;19.53;3.20;;;;;;;;;;5032266;28;20791;-76
2021/09/28 00:13:36;;;;;;;10.52;3.10;;;;;;;;;;5032803;28;20475;-76
2021/09/28 00:16:02;;;;;;;11.65;3.45;;;;;;;;;;5032288;28;20178;-77
2021/09/28 00:18:28;;;;;;;6.10;3.25;;;;;;;;;;5032386;28;20655;-78
2021/09/28 00:20:54;;;;;;;9.67;3.40;;;;;;;;;;5032323;28;20189;-78
2021/09/28 00:23:20;;;;;;;13.02;3.60;;;;;;;;;;5031871;28;20914;-77
2021/09/28 00:25:49;;;;;;;13.02;3.70;;;;;;;;;;5032182;28;20541;-77
2021/09/28 00:28:15;;;;;;;11.07;3.25;;;;;;;;;;5032168;28;20185;-77
2021/09/28 00:30:42;;;;;;;9.60;3.45;;;;;;;;;;5014437;28;20190;-77
2021/09/28 00:33:08;;;;;;;13.70;4.00;;;;;;;;;;5031825;28;20200;-76
2021/09/28 00:35:34;;;;;;;12.83;3.00;;;;;;;;;;5032383;28;20269;-77
2021/09/28 00:38:01;;;;;;;19.07;3.50;;;;;;;;;;5031970;28;20419;-76
2021/09/28 00:40:27;;;;;;;13.35;4.32;;;;;;;;;;5033306;28;20423;-77
2021/09/28 00:42:53;;;;;;;8.33;2.70;;;;;;;;;;5017752;28;20217;-77
2021/09/28 00:45:19;;;;;;;13.13;3.63;;;;;;;;;;5035638;28;20504;-77
2021/09/28 00:47:45;;;;;;;8.25;3.08;;;;;;;;;;5001631;28;20182;-77
2021/09/28 00:50:11;;;;;;;10.27;2.80;;;;;;;;;;5035500;28;20286;-77
2021/09/28 00:52:37;;;;;;;12.90;2.90;;;;;;;;;;4997157;28;1098044;-77
2021/09/28 00:55:03;;;;;;;10.70;3.05;;;;;;;;;;5036790;28;20182;-77
2021/09/28 00:57:29;;;;;;;10.73;2.88;;;;;;;;;;5036809;28;20178;-77
2021/09/28 00:59:56;;;;;;;11.60;3.22;;;;;;;;;;5036923;28;20182;-77
2021/09/28 01:02:22;;;;;;;9.57;3.72;;;;;;;;;;5036188;28;20202;-77
2021/09/28 01:04:48;;;;;;;13.02;3.60;;;;;;;;;;5036735;28;20178;-77
2021/09/28 01:07:14;;;;;;;9.68;2.67;;;;;;;;;;5036663;28;20166;-77
2021/09/28 01:09:41;;;;;;;12.32;3.20;;;;;;;;;;5002584;28;20217;-77
2021/09/28 01:12:08;;;;;;;7.70;4.10;;;;;;;;;;5036052;28;20202;-77
2021/09/28 01:14:34;;;;;;;18.33;3.45;;;;;;;;;;5018455;28;20236;-77
2021/09/28 01:17:00;;;;;;;18.52;3.83;;;;;;;;;;5036426;28;20182;-77
2021/09/28 01:19:26;;;;;;;15.40;3.45;;;;;;;;;;5018818;28;20237;-77
2021/09/28 01:21:52;;;;;;;12.02;3.50;;;;;;;;;;5035775;28;20194;-77
2021/09/28 01:24:18;;;;;;;6.97;3.55;;;;;;;;;;5036237;28;20239;-77
2021/09/28 01:26:44;;;;;;;8.75;3.38;;;;;;;;;;5036273;28;20605;-78
2021/09/28 01:29:10;;;;;;;10.13;3.20;;;;;;;;;;5036145;28;20178;-77
2021/09/28 01:31:40;;;;;;;12.77;3.35;;;;;;;;;;5035756;28;20587;-77
2021/09/28 01:34:09;;;;;;;10.45;3.80;;;;;;;;;;5036057;28;20170;-77
2021/09/28 01:36:35;;;;;;;13.45;3.75;;;;;;;;;;5035931;28;20189;-78
2021/09/28 01:39:01;;;;;;;14.50;3.33;;;;;;;;;;5035928;28;20638;-78
2021/09/28 01:41:27;;;;;;;11.68;3.53;;;;;;;;;;5035750;28;20656;-77
2021/09/28 01:44:07;;;;;;;9.03;3.90;;;;;;;;;;5036005;28;20213;-78
2021/09/28 01:46:34;;;;;;;7.25;2.85;;;;;;;;;;5036072;28;20409;-77
2021/09/28 01:49:00;;;;;;;14.13;4.07;;;;;;;;;;5035888;28;20181;-78
2021/09/28 01:51:26;;;;;;;11.25;4.22;;;;;;;;;;5035140;28;20201;-78
2021/09/28 01:53:52;;;;;;;19.33;4.37;;;;;;;;;;5035680;28;20190;-78
2021/09/28 01:56:22;;;;;;;12.23;4.90;;;;;;;;;;5035661;28;20932;-78
2021/09/28 01:58:48;;;;;;;14.60;4.70;;;;;;;;;;5035595;28;20452;-78
2021/09/28 02:01:14;;;;;;;17.98;5.15;;;;;;;;;;5035244;28;20178;-78
2021/09/28 02:03:40;;;;;;;17.33;6.20;;;;;;;;;;5035586;28;20240;-78
2021/09/28 02:06:06;;;;;;;9.18;5.35;;;;;;;;;;5035565;28;20177;-78
2021/09/28 02:08:32;;;;;;;16.10;4.78;;;;;;;;;;5017822;28;20186;-77
2021/09/28 02:10:58;;;;;;;13.88;4.40;;;;;;;;;;5035338;28;20178;-79
2021/09/28 02:13:24;;;;;;;16.95;4.22;;;;;;;;;;5035296;28;20207;-79
2021/09/28 02:15:50;;;;;;;8.83;3.80;;;;;;;;;;5035374;28;20189;-78
2021/09/28 02:18:16;;;;;;;13.60;4.40;;;;;;;;;;5017580;28;20460;-78
2021/09/28 02:20:42;;;;;;;4.70;2.83;;;;;;;;;;5035181;28;20901;-78
2021/09/28 02:23:08;;;;;;;12.57;2.88;;;;;;;;;;5034666;28;20476;-78
2021/09/28 02:25:34;;;;;;;10.38;2.80;;;;;;;;;;5035580;28;20217;-77
2021/09/28 02:28:00;;;;;;;7.43;2.80;;;;;;;;;;5036051;28;20240;-78
2021/09/28 02:30:26;;;;;;;12.13;3.37;;;;;;;;;;5017559;28;20451;-78
2021/09/28 02:32:52;;;;;;;16.63;3.63;;;;;;;;;;5034552;28;20441;-79
2021/09/28 02:35:18;;;;;;;16.70;3.83;;;;;;;;;;5017290;28;20838;-78
2021/09/28 02:37:45;;;;;;;15.07;3.65;;;;;;;;;;5034945;28;20178;-78
2021/09/28 02:40:11;;;;;;;9.82;3.70;;;;;;;;;;5035027;28;20178;-78
2021/09/28 02:42:37;;;;;;;19.23;3.88;;;;;;;;;;5016896;28;20264;-78
2021/09/28 02:45:06;;;;;;;8.32;3.30;;;;;;;;;;5016928;28;20182;-79
2021/09/28 02:47:32;;;;;;;6.68;2.75;;;;;;;;;;5017116;28;20262;-77
2021/09/28 02:49:59;;;;;;;11.30;4.00;;;;;;;;;;5034748;28;20201;-77
2021/09/28 02:52:25;;;;;;;11.07;3.33;;;;;;;;;;5034163;28;20581;-78
2021/09/28 02:54:51;;;;;;;6.63;2.92;;;;;;;;;;5034585;28;20182;-78
2021/09/28 02:57:17;;;;;;;10.38;3.15;;;;;;;;;;5016845;28;20659;-78
2021/09/28 02:59:43;;;;;;;7.95;3.20;;;;;;;;;;5034505;28;20178;-79
2021/09/28 03:02:09;;;;;;;6.55;3.00;;;;;;;;;;5016270;28;20210;-78
2021/09/28 03:04:35;;;;;;;6.85;3.20;;;;;;;;;;5016375;28;20182;-78
2021/09/28 03:07:01;;;;;;;8.77;3.17;;;;;;;;;;5016714;28;20179;-78
2021/09/28 03:09:27;;;;;;;17.50;3.05;;;;;;;;;;5034269;28;20413;-78
2021/09/28 03:11:54;;;;;;;6.73;2.57;;;;;;;;;;5033918;28;20530;-77
2021/09/28 03:14:20;;;;;;;12.60;4.78;;;;;;;;;;5034267;28;20441;-78
2021/09/28 03:16:47;;;;;;;7.32;2.90;;;;;;;;;;5034159;28;20675;-78
2021/09/28 03:19:14;;;;;;;8.50;3.03;;;;;;;;;;5034080;28;20173;-78
2021/09/28 03:21:39;;;;;;;13.07;3.25;;;;;;;;;;5033708;28;20194;-78
2021/09/28 03:24:06;;;;;;;19.70;3.00;;;;;;;;;;5034014;28;20689;-79
2021/09/28 03:26:32;;;;;;;15.50;3.42;;;;;;;;;;5016510;28;20495;-78
2021/09/28 03:28:57;;;;;;;10.63;2.80;;;;;;;;;;5033949;28;20261;-78
2021/09/28 03:31:23;;;;;;;8.20;2.63;;;;;;;;;;5033320;28;20406;-78
2021/09/28 03:33:49;;;;;;;8.70;2.60;;;;;;;;;;5033720;28;20424;-78
2021/09/28 03:36:16;;;;;;;13.63;3.30;;;;;;;;;;5033821;28;20182;-79
2021/09/28 03:38:42;;;;;;;9.27;2.30;;;;;;;;;;5033816;28;20435;-78
2021/09/28 03:41:08;;;;;;;16.80;3.40;;;;;;;;;;4999450;28;20606;-78
2021/09/28 03:43:34;;;;;;;19.40;2.70;;;;;;;;;;5015915;28;20460;-78
2021/09/28 03:46:00;;;;;;;8.13;2.83;;;;;;;;;;5033419;28;20890;-78
2021/09/28 03:48:26;;;;;;;5.38;2.40;;;;;;;;;;5033717;28;20459;-78
2021/09/28 03:50:52;;;;;;;7.93;2.60;;;;;;;;;;5016288;28;20178;-78
2021/09/28 03:53:18;;;;;;;8.50;2.57;;;;;;;;;;5033246;28;20437;-79
2021/09/28 03:55:43;;;;;;;12.60;3.10;;;;;;;;;;5033451;28;20412;-78
2021/09/28 03:58:11;;;;;;;5.25;2.25;;;;;;;;;;5015755;28;20939;-78
2021/09/28 04:00:38;;;;;;;6.13;2.38;;;;;;;;;;5033513;28;20239;-78
2021/09/28 04:03:05;;;;;;;8.32;2.50;;;;;;;;;;5033010;28;20221;-78
2021/09/28 04:05:31;;;;;;;7.50;2.60;;;;;;;;;;5033336;28;20261;-78
2021/09/28 04:07:57;;;;;;;10.30;2.75;;;;;;;;;;5033221;28;20226;-77
2021/09/28 04:10:23;;;;;;;9.97;3.20;;;;;;;;;;5033317;28;20272;-78
2021/09/28 04:12:49;;;;;;;6.77;2.00;;;;;;;;;;5032813;28;20435;-79
2021/09/28 04:15:16;;;;;;;12.10;3.08;;;;;;;;;;5015584;28;20508;-79
2021/09/28 04:17:42;;;;;;;14.43;3.53;;;;;;;;;;5033091;28;20272;-78
2021/09/28 04:20:08;;;;;;;7.90;2.57;;;;;;;;;;5033066;28;20272;-78
2021/09/28 04:22:34;;;;;;;8.27;2.78;;;;;;;;;;5032707;28;20469;-77
2021/09/28 04:25:04;;;;;;;6.90;2.10;;;;;;;;;;5033024;28;20265;-78
2021/09/28 04:27:31;;;;;;;6.55;2.03;;;;;;;;;;5015370;28;20638;-78
2021/09/28 04:29:57;;;;;;;13.25;2.83;;;;;;;;;;5032951;28;20178;-77
2021/09/28 04:32:23;;;;;;;7.45;2.20;;;;;;;;;;5032484;28;20240;-77
2021/09/28 04:34:48;;;;;;;6.77;2.60;;;;;;;;;;5033005;28;20201;-78
2021/09/28 04:37:15;;;;;;;6.87;2.00;;;;;;;;;;5015190;28;20771;-77
2021/09/28 04:39:40;;;;;;;11.77;2.42;;;;;;;;;;5033060;28;20504;-78
2021/09/28 04:42:07;;;;;;;11.17;2.53;;;;;;;;;;5032351;28;20240;-78
2021/09/28 04:44:33;;;;;;;9.18;2.53;;;;;;;;;;5033110;28;20440;-77
2021/09/28 04:46:59;;;;;;;3.38;1.80;;;;;;;;;;5032964;28;20210;-77
2021/09/28 04:49:25;;;;;;;8.85;2.20;;;;;;;;;;5032991;28;20182;-77
2021/09/28 04:51:51;;;;;;;8.33;2.37;;;;;;;;;;5014784;28;20198;-79
2021/09/28 04:54:16;;;;;;;10.47;2.70;;;;;;;;;;5033005;28;20563;-78
2021/09/28 04:56:42;;;;;;;6.90;1.70;;;;;;;;;;5032640;28;20482;-78
2021/09/28 04:59:08;;;;;;;7.30;2.20;;;;;;;;;;4998847;28;20417;-78
2021/09/28 05:01:34;;;;;;;7.40;2.50;;;;;;;;;;5044521;28;20448;-78
2021/09/28 05:04:00;;;;;;;7.33;1.97;;;;;;;;;;5052577;28;20944;-78
2021/09/28 05:06:26;;;;;;;16.42;2.90;;;;;;;;;;5052660;28;20408;-77
2021/09/28 05:08:52;;;;;;;5.93;1.90;;;;;;;;;;5052853;28;20260;-78
2021/09/28 05:11:18;;;;;;;9.03;3.03;;;;;;;;;;5052393;28;20404;-77
2021/09/28 05:13:44;;;;;;;9.03;2.20;;;;;;;;;;5052649;28;20868;-77
2021/09/28 05:16:10;;;;;;;9.50;2.40;;;;;;;;;;5052487;28;20404;-77
2021/09/28 05:18:36;;;;;;;9.70;2.33;;;;;;;;;;5052556;28;20458;-77
2021/09/28 05:21:02;;;;;;;13.43;2.90;;;;;;;;;;5052480;28;20443;-77
2021/09/28 05:23:29;;;;;;;8.15;2.30;;;;;;;;;;5052352;28;20460;-78
2021/09/28 05:25:55;;;;;;;7.32;2.70;;;;;;;;;;5052785;28;20182;-77
2021/09/28 05:28:21;;;;;;;5.45;3.00;;;;;;;;;;5056074;28;20177;-78
2021/09/28 05:30:47;;;;;;;8.30;2.40;;;;;;;;;;5038308;28;20173;-77
2021/09/28 05:33:13;;;;;;;14.20;2.58;;;;;;;;;;5021445;28;20526;-77
2021/09/28 05:35:40;;;;;;;9.73;2.88;;;;;;;;;;5038129;28;20660;-77
2021/09/28 05:38:06;;;;;;;6.38;2.75;;;;;;;;;;5055250;28;20178;-77
2021/09/28 05:40:32;;;;;;;9.00;3.10;;;;;;;;;;5037457;28;20207;-77
2021/09/28 05:42:58;;;;;;;5.75;2.08;;;;;;;;;;5055132;28;20772;-77
2021/09/28 05:45:24;;;;;;;9.03;2.10;;;;;;;;;;5055834;28;20209;-77
2021/09/28 05:47:50;;;;;;;8.80;2.40;;;;;;;;;;5055847;28;20457;-78
2021/09/28 05:50:20;;;;;;;7.70;2.45;;;;;;;;;;5055648;28;20181;-77
2021/09/28 05:52:46;;;;;;;15.65;3.20;;;;;;;;;;5037014;28;20701;-78
2021/09/28 05:55:12;;;;;;;21.63;2.70;;;;;;;;;;5055446;28;20189;-77
2021/09/28 05:57:38;;;;;;;7.90;2.70;;;;;;;;;;5055274;28;20689;-77
2021/09/28 06:00:04;;;;;;;8.88;2.72;;;;;;;;;;5055173;28;20510;-77
2021/09/28 06:02:30;;;;;;;11.75;2.72;;;;;;;;;;5052667;28;20669;-78
2021/09/28 06:04:56;;;;;;;9.03;2.40;;;;;;;;;;5055558;28;20223;-77
2021/09/28 06:07:23;;;;;;;9.70;3.08;;;;;;;;;;5055429;28;20766;-77
2021/09/28 06:09:49;;;;;;;4.88;2.67;;;;;;;;;;5055402;28;20173;-78
2021/09/28 06:12:15;;;;;;;7.25;2.58;;;;;;;;;;5037344;28;20284;-78
2021/09/28 06:14:42;;;;;;;6.55;2.80;;;;;;;;;;5055176;28;20259;-78
2021/09/28 06:17:09;;;;;;;6.72;3.85;;;;;;;;;;5055414;28;20181;-77
2021/09/28 06:19:35;;;;;;;9.05;3.58;;;;;;;;;;5055334;28;20177;-77
2021/09/28 06:22:02;;;;;;;5.40;2.88;;;;;;;;;;5054741;28;20193;-77
2021/09/28 06:24:30;;;;;;;5.32;2.83;;;;;;;;;;5055130;28;20231;-77
2021/09/28 06:26:57;;;;;;;11.32;3.60;;;;;;;;;;5054898;28;20226;-77
2021/09/28 06:29:23;;;;;;;9.18;2.45;;;;;;;;;;5037286;28;20184;-78
2021/09/28 06:31:49;;;;;;;17.47;2.77;;;;;;;;;;5054286;28;20197;-78
2021/09/28 06:34:15;;;;;;;9.00;2.30;;;;;;;;;;5054435;28;20424;-78
2021/09/28 06:36:41;;;;;;;10.67;3.00;;;;;;;;;;5054517;28;20785;-77
2021/09/28 06:39:07;;;;;;;6.27;2.47;;;;;;;;;;5053483;28;20420;-78
2021/09/28 06:41:34;;;;;;;6.25;2.40;;;;;;;;;;5054435;28;20451;-78
2021/09/28 06:44:00;;;;;;;11.68;2.90;;;;;;;;;;5054641;28;20204;-78
2021/09/28 06:46:26;;;;;;;14.15;3.50;;;;;;;;;;5054654;28;20170;-78
2021/09/28 06:48:52;;;;;;;7.75;2.83;;;;;;;;;;5054746;28;20219;-78
2021/09/28 06:51:18;;;;;;;18.63;3.25;;;;;;;;;;5054308;28;20178;-77
2021/09/28 06:53:45;;;;;;;11.43;2.95;;;;;;;;;;5036471;28;20694;-77
2021/09/28 06:56:11;;;;;;;11.98;2.92;;;;;;;;;;5020496;28;20189;-79
2021/09/28 06:58:38;;;;;;;6.18;2.55;;;;;;;;;;5054515;28;20174;-79
2021/09/28 07:01:04;;;;;;;12.43;2.67;;;;;;;;;;5053721;28;20268;-78
2021/09/28 07:03:33;;;;;;;9.23;2.30;;;;;;;;;;5036320;28;20263;-78
2021/09/28 07:05:59;;;;;;;6.80;2.28;;;;;;;;;;5054318;28;20635;-77
2021/09/28 07:08:25;;;;;;;5.73;2.23;;;;;;;;;;5036737;28;20212;-78
2021/09/28 07:10:51;;;;;;;17.60;3.10;;;;;;;;;;5036817;28;20745;-78
2021/09/28 07:13:16;;;;;;;17.10;3.38;;;;;;;;;;5054232;28;20485;-78
2021/09/28 07:15:42;;;;;;;8.80;2.63;;;;;;;;;;5054389;28;20177;-78
2021/09/28 07:18:09;;;;;;;14.00;2.93;;;;;;;;;;5036370;28;20455;-78
2021/09/28 07:20:37;;;;;;;9.38;2.80;;;;;;;;;;5054117;28;20837;-78
2021/09/28 07:23:03;;;;;;;8.10;2.30;;;;;;;;;;5053589;28;20206;-76
2021/09/28 07:25:29;;;;;;;6.57;2.80;;;;;;;;;;5053969;28;20178;-78
2021/09/28 07:27:58;;;;;;;10.50;2.20;;;;;;;;;;5036021;28;20200;-78
2021/09/28 07:30:25;;;;;;;11.38;3.20;;;;;;;;;;5053837;28;20184;-78
2021/09/28 07:32:51;;;;;;;7.07;2.55;;;;;;;;;;5053347;28;20221;-78
2021/09/28 07:35:17;;;;;;;9.63;2.30;;;;;;;;;;5035690;28;20279;-77
2021/09/28 07:37:43;;;;;;;6.50;2.10;;;;;;;;;;5053719;28;20550;-78
2021/09/28 07:40:09;;;;;;;7.63;2.75;;;;;;;;;;5053686;28;20561;-78
2021/09/28 07:42:35;;;;;;;7.78;2.53;;;;;;;;;;5053214;28;20208;-77
2021/09/28 07:45:03;;;;;;;16.93;3.00;;;;;;;;;;5053599;28;20252;-78
2021/09/28 07:47:29;;;;;;;7.13;3.20;;;;;;;;;;5035642;28;20941;-78
2021/09/28 07:49:55;;;;;;;10.90;2.80;;;;;;;;;;5035592;28;20408;-78
2021/09/28 07:52:21;;;;;;;10.93;2.70;;;;;;;;;;5035173;28;20470;-78
2021/09/28 07:54:47;;;;;;;5.93;2.57;;;;;;;;;;5053516;28;20415;-78
2021/09/28 07:57:13;;;;;;;8.40;2.70;;;;;;;;;;5053380;28;20430;-79
2021/09/28 07:59:39;;;;;;;8.57;3.20;;;;;;;;;;5035618;28;20510;-78
2021/09/28 08:02:06;;;;;;;9.10;2.47;;;;;;;;;;5035240;28;20561;-78
2021/09/28 08:04:32;;;;;;;8.57;2.57;;;;;;;;;;5035531;28;20515;-78
2021/09/28 08:07:00;;;;;;;6.43;2.70;;;;;;;;;;5053405;28;20761;-78
2021/09/28 08:09:26;;;;;;;11.23;2.30;;;;;;;;;;5053208;28;20811;-77
2021/09/28 08:11:52;;;;;;;10.57;2.17;;;;;;;;;;5052941;28;20432;-78
2021/09/28 08:14:18;;;;;;;6.13;2.50;;;;;;;;;;5053311;28;20404;-78
2021/09/28 08:16:44;;;;;;;11.50;2.00;;;;;;;;;;5053260;28;20404;-79
2021/09/28 08:19:10;;;;;;;6.83;1.67;;;;;;;;;;5053146;28;20431;-78
2021/09/28 08:21:36;;;;;;;4.17;1.70;;;;;;;;;;5052963;28;20433;-78
2021/09/28 08:24:02;;;;;;;8.97;2.50;;;;;;;;;;5055833;28;20463;-77
2021/09/28 08:29:11;;;;;;;5.10;2.03;;;;;;;;;;5035467;28;20434;-77
2021/09/28 08:31:37;;;;;;;4.90;1.80;;;;;;;;;;5052594;28;20427;-77
2021/09/28 08:34:04;;;;;;;8.77;2.10;;;;;;;;;;5052951;28;20423;-77
2021/09/28 08:36:30;;;;;;;7.90;2.27;;;;;;;;;;5052979;28;20487;-78
2021/09/28 08:38:56;;;;;;;7.63;1.80;;;;;;;;;;5035071;28;20860;-77
2021/09/28 08:41:22;;;;;;;6.10;1.90;;;;;;;;;;5034640;28;20901;-77
2021/09/28 08:43:49;;;;;;;4.67;2.03;;;;;;;;;;5052513;28;20471;-77
2021/09/28 08:46:16;;;;;;;12.20;1.90;;;;;;;;;;5052842;28;20412;-77
2021/09/28 08:48:43;;;;;;;8.30;1.67;;;;;;;;;;5053148;28;20423;-78
2021/09/28 08:51:12;;;;;;;4.20;1.40;;;;;;;;;;5052794;28;20419;-77
2021/09/28 08:53:39;;;;;;;5.50;2.00;;;;;;;;;;5053028;28;20519;-78
2021/09/28 08:56:05;;;;;;;8.97;2.23;;;;;;;;;;5035019;28;20395;-77
2021/09/28 08:58:31;;;;;;;13.23;2.40;;;;;;;;;;5052826;28;20448;-76
2021/09/28 09:01:08;;;;;;;5.13;1.50;;;;;;;;;;5053237;28;20412;-77
2021/09/28 09:03:35;;;;;;;2.70;1.10;;;;;;;;;;5056909;28;20495;-78
2021/09/28 09:06:02;;;;;;;5.23;1.60;;;;;;;;;;5056619;28;20430;-77
2021/09/28 09:08:34;;;;;;;5.53;1.50;;;;;;;;;;5056776;28;20408;-77
2021/09/28 09:11:00;;;;;;;7.00;2.13;;;;;;;;;;5038788;28;20408;-77
2021/09/28 09:13:36;;;;;;;5.60;1.73;;;;;;;;;;5056367;28;20428;-77
2021/09/28 09:16:03;;;;;;;4.70;1.67;;;;;;;;;;5056752;28;20403;-77
2021/09/28 09:18:29;;;;;;;8.60;2.10;;;;;;;;;;5056534;28;20883;-77
2021/09/28 09:20:58;;;;;;;8.70;1.63;;;;;;;;;;5056468;28;20390;-78
2021/09/28 09:23:36;;;;;;;4.47;1.50;;;;;;;;;;5056157;28;20463;-78
2021/09/28 09:26:02;;;;;;;11.43;1.47;;;;;;;;;;5056353;28;20807;-78
2021/09/28 09:28:32;;;;;;;4.20;1.30;;;;;;;;;;5056244;28;20404;-78
2021/09/28 09:31:08;;;;;;;11.43;2.47;;;;;;;;;;5038246;28;20398;-78
2021/09/28 09:33:35;;;;;;;4.30;1.77;;;;;;;;;;5056085;28;20995;-78
2021/09/28 09:36:01;;;;;;;7.03;1.83;;;;;;;;;;5056144;28;20775;-78
2021/09/28 09:38:27;;;;;;;4.53;1.60;;;;;;;;;;5038136;28;20427;-75
2021/09/28 09:40:53;;;;;;;4.60;1.40;;;;;;;;;;5056014;28;20818;-78
2021/09/28 09:43:29;;;;;;;4.83;1.50;;;;;;;;;;5055502;28;20463;-78
2021/09/28 09:46:11;;;;;;;6.27;1.40;;;;;;;;;;5055999;28;20724;-79
2021/09/28 09:48:38;;;;;;;6.37;1.50;;;;;;;;;;5055767;28;20434;-77
2021/09/28 09:51:04;;;;;;;7.63;2.10;;;;;;;;;;5055536;28;20393;-78
2021/09/28 09:53:30;;;;;;;4.00;1.20;;;;;;;;;;5055635;28;20422;-78
2021/09/28 09:55:58;;;;;;;6.50;1.50;;;;;;;;;;5037799;28;20427;-78
2021/09/28 09:58:24;;;;;;;6.10;1.47;;;;;;;;;;5055443;28;20768;-78
2021/09/28 10:00:53;;;;;;;6.77;1.70;;;;;;;;;;5055513;28;20412;-78
2021/09/28 10:03:20;;;;;;;8.80;1.97;;;;;;;;;;5055152;28;20438;-78
2021/09/28 10:05:46;;;;;;;5.20;1.50;;;;;;;;;;5055605;28;20379;-78
2021/09/28 10:08:13;;;;;;;7.50;1.77;;;;;;;;;;5055456;28;20453;-78
2021/09/28 10:10:40;;;;;;;9.27;2.30;;;;;;;;;;5037655;28;20541;-78
2021/09/28 10:13:07;;;;;;;5.00;1.30;;;;;;;;;;5054800;28;20435;-77
2021/09/28 10:15:34;;;;;;;8.87;2.33;;;;;;;;;;5037524;28;20474;-78
2021/09/28 10:18:00;;;;;;;6.00;1.70;;;;;;;;;;5055302;28;20419;-78
2021/09/28 10:20:28;;;;;;;5.40;1.40;;;;;;;;;;5055232;28;20399;-78
2021/09/28 10:23:13;;;;;;;7.30;1.97;;;;;;;;;;5054559;28;20438;-78
2021/09/28 10:25:41;;;;;;;3.13;1.13;;;;;;;;;;5055310;28;20382;-78
2021/09/28 10:28:07;;;;;;;5.63;1.60;;;;;;;;;;5055152;28;20421;-78
2021/09/28 10:30:35;;;;;;;6.23;1.93;;;;;;;;;;5055142;28;20387;-78
2021/09/28 10:33:20;;;;;;;5.57;1.40;;;;;;;;;;5054642;28;20434;-78
2021/09/28 10:35:55;;;;;;;7.37;2.83;;;;;;;;;;5055079;28;20382;-78
2021/09/28 10:38:40;;;;;;;6.33;1.70;;;;;;;;;;5055003;28;20407;-78
2021/09/28 10:41:06;;;;;;;3.40;1.43;;;;;;;;;;5036769;28;20394;-79
2021/09/28 10:43:32;;;;;;;13.83;1.90;;;;;;;;;;5054549;28;20442;-78
2021/09/28 10:46:00;;;;;;;4.23;1.73;;;;;;;;;;5054702;28;20387;-78
2021/09/28 10:48:29;;;;;;;6.97;1.40;;;;;;;;;;5054809;28;20412;-78
2021/09/28 10:51:14;;;;;;;5.03;1.50;;;;;;;;;;5054608;28;20382;-78
2021/09/28 10:53:42;;;;;;;6.00;1.77;;;;;;;;;;5054811;28;20930;-78
2021/09/28 10:56:09;;;;;;;3.37;1.50;;;;;;;;;;5036950;28;20937;-78
2021/09/28 10:58:56;;;;;;;9.23;2.00;;;;;;;;;;5054813;28;20412;-78
2021/09/28 11:01:26;;;;;;;7.53;1.63;;;;;;;;;;5054313;28;20495;-78
2021/09/28 11:03:56;;;;;;;3.23;1.40;;;;;;;;;;5036612;28;20463;-78
2021/09/28 11:06:41;;;;;;;7.40;1.60;;;;;;;;;;5054470;28;20378;-79
2021/09/28 11:09:10;;;;;;;6.47;1.70;;;;;;;;;;5054306;28;20462;-78
2021/09/28 11:11:36;;;;;;;5.80;1.53;;;;;;;;;;5053990;28;20447;-78
2021/09/28 11:14:03;;;;;;;10.77;1.90;;;;;;;;;;5054331;28;20379;-78
2021/09/28 11:16:29;;;;;;;4.53;1.60;;;;;;;;;;5054434;28;20385;-78
2021/09/28 11:18:59;;;;;;;4.43;1.40;;;;;;;;;;5054424;28;20826;-78
2021/09/28 11:21:25;;;;;;;6.90;1.80;;;;;;;;;;5053794;28;20391;-78
2021/09/28 11:23:53;;;;;;;3.63;1.43;;;;;;;;;;5053446;28;20442;-78
2021/09/28 11:26:20;;;;;;;4.10;1.47;;;;;;;;;;5054182;28;20379;-78
2021/09/28 11:28:51;;;;;;;5.30;2.37;;;;;;;;;;5053997;28;20419;-78
2021/09/28 11:31:17;;;;;;;6.83;1.70;;;;;;;;;;5053504;28;20404;-78
2021/09/28 11:33:44;;;;;;;4.60;1.63;;;;;;;;;;5054003;28;20436;-79
2021/09/28 11:36:10;;;;;;;4.80;1.50;;;;;;;;;;5053869;28;20504;-79
2021/09/28 11:38:38;;;;;;;4.30;1.93;;;;;;;;;;5053783;28;20846;-79
2021/09/28 11:41:18;;;;;;;4.30;1.63;;;;;;;;;;5053371;28;20499;-79
2021/09/28 11:43:49;;;;;;;5.40;1.53;;;;;;;;;;5035660;28;20492;-79
2021/09/28 11:46:17;;;;;;;2.50;1.20;;;;;;;;;;5053902;28;20921;-79
2021/09/28 11:48:45;;;;;;;7.00;1.50;;;;;;;;;;5035701;28;20880;-78
2021/09/28 11:51:15;;;;;;;3.73;1.57;;;;;;;;;;5053119;28;20408;-79
2021/09/28 11:53:42;;;;;;;3.70;1.50;;;;;;;;;;5053279;28;20884;-79
2021/09/28 11:56:08;;;;;;;5.27;1.70;;;;;;;;;;5035800;28;20416;-79
2021/09/28 11:58:35;;;;;;;4.90;1.73;;;;;;;;;;5053443;28;20390;-79
2021/09/28 12:01:01;;;;;;;7.93;1.60;;;;;;;;;;5053289;28;20423;-79
2021/09/28 12:03:27;;;;;;;4.00;1.43;;;;;;;;;;5052901;28;20434;-79
2021/09/28 12:08:23;;;;;;;3.43;1.47;;;;;;;;;;5053581;28;20412;-79
2021/09/28 12:10:50;;;;;;;4.37;1.60;;;;;;;;;;5053417;28;20404;-78
2021/09/28 12:13:20;;;;;;;13.77;1.80;;;;;;;;;;5052904;28;20486;-79
2021/09/28 12:16:01;;;;;;;3.93;2.23;;;;;;;;;;5053304;28;20407;-79
2021/09/28 12:18:27;;;;;;;4.63;1.60;;;;;;;;;;5053204;28;20411;-79
2021/09/28 12:21:07;;;;;;;6.93;1.30;;;;;;;;;;5053103;28;20404;-79
2021/09/28 12:23:33;;;;;;;3.57;1.40;;;;;;;;;;5052726;28;20475;-79
2021/09/28 12:25:59;;;;;;;3.03;0.93;;;;;;;;;;5053154;28;20435;-80
2021/09/28 12:28:26;;;;;;;6.17;1.50;;;;;;;;;;5035434;28;20416;-79
2021/09/28 12:30:58;;;;;;;2.03;1.23;;;;;;;;;;5052989;28;20404;-79
2021/09/28 12:33:24;;;;;;;3.43;1.50;;;;;;;;;;5052599;28;20817;-79
2021/09/28 12:35:53;;;;;;;5.70;1.70;;;;;;;;;;5054730;28;20769;-79
2021/09/28 12:38:19;;;;;;;5.80;1.50;;;;;;;;;;5057205;28;20444;-79
2021/09/28 12:40:45;;;;;;;2.60;1.47;;;;;;;;;;5057185;28;20454;-79
2021/09/28 12:43:14;;;;;;;5.23;1.40;;;;;;;;;;5056730;28;20467;-79
2021/09/28 12:45:46;;;;;;;4.20;1.53;;;;;;;;;;5056797;28;20408;-79
2021/09/28 12:48:12;;;;;;;4.30;1.43;;;;;;;;;;5057016;28;20419;-79
2021/09/28 12:50:40;;;;;;;5.20;1.10;;;;;;;;;;5038990;28;20756;-79
2021/09/28 12:53:07;;;;;;;4.73;1.33;;;;;;;;;;5038531;28;20463;-79
2021/09/28 12:55:36;;;;;;;7.40;1.90;;;;;;;;;;5056666;28;20461;-79
2021/09/28 12:58:02;;;;;;;5.17;1.50;;;;;;;;;;5057047;28;20412;-79
2021/09/28 13:00:28;;;;;;;2.30;1.10;;;;;;;;;;5056975;28;20407;-80
2021/09/28 13:02:55;;;;;;;3.83;1.10;;;;;;;;;;5056452;28;20584;-79
2021/09/28 13:05:22;;;;;;;4.13;1.40;;;;;;;;;;5056757;28;20757;-79
2021/09/28 13:07:49;;;;;;;2.03;1.00;;;;;;;;;;5038786;28;20391;-79
2021/09/28 13:10:15;;;;;;;4.17;1.57;;;;;;;;;;5056687;28;20470;-79
2021/09/28 13:12:42;;;;;;;3.60;1.20;;;;;;;;;;5056200;28;20431;-79
2021/09/28 13:15:08;;;;;;;6.57;1.57;;;;;;;;;;5056466;28;20386;-78
2021/09/28 13:17:34;;;;;;;5.20;1.30;;;;;;;;;;5056521;28;20408;-80
2021/09/28 13:20:02;;;;;;;2.40;1.30;;;;;;;;;;5056198;28;20883;-80
2021/09/28 13:22:28;;;;;;;10.23;2.20;;;;;;;;;;5055843;28;20470;-79
2021/09/28 13:24:54;;;;;;;3.77;1.37;;;;;;;;;;5056540;28;20443;-79
2021/09/28 13:27:20;;;;;;;4.60;1.37;;;;;;;;;;5038673;28;20502;-79
2021/09/28 13:29:46;;;;;;;8.03;1.30;;;;;;;;;;5056337;28;20507;-79
2021/09/28 13:32:13;;;;;;;1.40;1.10;;;;;;;;;;5055791;28;20473;-79
2021/09/28 13:34:39;;;;;;;1.63;1.00;;;;;;;;;;5056217;28;20415;-79
2021/09/28 13:37:06;;;;;;;4.80;1.00;;;;;;;;;;5056233;28;20407;-79
2021/09/28 13:39:32;;;;;;;6.87;1.80;;;;;;;;;;5038258;28;20423;-79
2021/09/28 13:41:58;;;;;;;2.17;1.10;;;;;;;;;;5055511;28;20492;-79
2021/09/28 13:44:24;;;;;;;6.03;1.90;;;;;;;;;;5037893;28;20529;-79
2021/09/28 13:46:50;;;;;;;3.50;1.40;;;;;;;;;;5055455;28;20423;-79
2021/09/28 13:49:16;;;;;;;2.20;1.30;;;;;;;;;;5038295;28;20391;-79
2021/09/28 13:51:42;;;;;;;6.30;1.53;;;;;;;;;;5055610;28;20409;-79
2021/09/28 13:54:08;;;;;;;2.90;1.30;;;;;;;;;;5055552;28;20439;-79
2021/09/28 13:56:34;;;;;;;4.90;1.70;;;;;;;;;;5055623;28;20426;-79
2021/09/28 13:59:00;;;;;;;5.43;1.50;;;;;;;;;;5055749;28;20386;-80
2021/09/28 14:01:27;;;;;;;3.43;1.60;;;;;;;;;;5055366;28;20545;-79
2021/09/28 14:03:53;;;;;;;3.23;1.30;;;;;;;;;;5055595;28;20437;-80
2021/09/28 14:06:19;;;;;;;4.07;1.20;;;;;;;;;;5055431;28;20404;-79
2021/09/28 14:08:45;;;;;;;4.27;1.63;;;;;;;;;;5055485;28;20390;-80
2021/09/28 14:11:14;;;;;;;3.47;1.20;;;;;;;;;;5055192;28;20515;-79
2021/09/28 14:13:40;;;;;;;4.03;1.37;;;;;;;;;;5055365;28;20760;-80
2021/09/28 14:16:06;;;;;;;5.80;1.83;;;;;;;;;;5055455;28;20416;-80
2021/09/28 14:18:32;;;;;;;4.17;1.50;;;;;;;;;;5055313;28;20422;-79
2021/09/28 14:21:02;;;;;;;3.97;1.30;;;;;;;;;;5055268;28;20786;-79
2021/09/28 14:23:28;;;;;;;4.70;1.70;;;;;;;;;;5055138;28;20467;-79
2021/09/28 14:25:54;;;;;;;3.60;1.40;;;;;;;;;;5055227;28;20414;-79
2021/09/28 14:28:20;;;;;;;3.77;1.53;;;;;;;;;;5055031;28;20410;-79
2021/09/28 14:30:47;;;;;;;6.63;1.97;;;;;;;;;;5055167;28;20442;-80
2021/09/28 14:33:13;;;;;;;9.97;1.90;;;;;;;;;;5054613;28;20800;-79
2021/09/28 14:35:39;;;;;;;3.00;1.50;;;;;;;;;;5054877;28;20415;-79
2021/09/28 14:38:06;;;;;;;5.60;2.13;;;;;;;;;;5054891;28;20432;-80
2021/09/28 14:40:32;;;;;;;4.07;1.93;;;;;;;;;;5054847;28;20404;-80
2021/09/28 14:42:59;;;;;;;4.90;1.77;;;;;;;;;;5054358;28;20844;-80